createdAt,value
2022-09-07T00:01:20.819Z,100.00
2022-09-07T00:03:49.211Z,100.00
2022-09-07T00:06:17.552Z,100.00
2022-09-07T00:08:47.169Z,100.00
2022-09-07T00:11:18.567Z,100.00
2022-09-07T00:13:50.656Z,100.00
2022-09-07T00:16:22.854Z,100.00
2022-09-07T00:18:51.870Z,100.00
2022-09-07T00:21:20.163Z,100.00
2022-09-07T00:23:51.400Z,100.00
2022-09-07T00:26:22.713Z,100.00
2022-09-07T00:28:52.488Z,100.00
2022-09-07T00:31:24.484Z,100.00
2022-09-07T00:33:55.104Z,100.00
2022-09-07T00:36:24.638Z,100.00
2022-09-07T00:38:55.012Z,100.00
2022-09-07T00:41:24.560Z,100.00
2022-09-07T00:43:55.820Z,100.00
2022-09-07T00:46:27.190Z,100.00
2022-09-07T00:49:03.913Z,100.00
2022-09-07T00:51:40.628Z,100.00
2022-09-07T00:54:17.733Z,100.00
2022-09-07T00:56:49.896Z,100.00
2022-09-07T00:59:27.246Z,100.00
2022-09-07T01:01:55.988Z,100.00
2022-09-07T01:04:26.643Z,100.00
2022-09-07T01:06:56.402Z,100.00
2022-09-07T01:09:29.611Z,100.00
2022-09-07T01:12:02.120Z,100.00
2022-09-07T01:14:37.662Z,100.00
2022-09-07T01:17:20.021Z,100.00
2022-09-07T01:20:29.622Z,100.00
2022-09-07T01:23:37.013Z,100.00
2022-09-07T01:27:01.450Z,100.00
2022-09-07T01:29:38.932Z,100.00
2022-09-07T01:32:19.988Z,100.00
2022-09-07T01:34:55.138Z,100.00
2022-09-07T01:37:34.031Z,100.00
2022-09-07T01:40:10.975Z,100.00
2022-09-07T01:42:50.289Z,100.00
2022-09-07T01:45:25.961Z,100.00
2022-09-07T01:47:59.809Z,100.00
2022-09-07T01:50:36.529Z,100.00
2022-09-07T01:53:15.323Z,100.00
2022-09-07T01:55:49.701Z,100.00
2022-09-07T01:58:25.295Z,100.00
2022-09-07T02:01:02.911Z,100.00
2022-09-07T02:03:38.595Z,100.00
2022-09-07T02:06:15.404Z,100.00
2022-09-07T02:08:51.452Z,100.00
2022-09-07T02:11:25.124Z,100.00
2022-09-07T02:14:00.846Z,100.00
2022-09-07T02:16:33.506Z,100.00
2022-09-07T02:19:13.323Z,100.00
2022-09-07T02:21:46.290Z,100.00
2022-09-07T02:24:21.492Z,100.00
2022-09-07T02:26:53.779Z,100.00
2022-09-07T02:29:22.211Z,100.00
2022-09-07T02:31:52.111Z,100.00
2022-09-07T02:34:21.179Z,100.00
2022-09-07T02:36:52.274Z,100.00
2022-09-07T02:39:20.588Z,100.00
2022-09-07T02:41:48.925Z,100.00
2022-09-07T02:44:22.202Z,100.00
2022-09-07T02:47:14.305Z,100.00
2022-09-07T02:50:10.885Z,100.00
2022-09-07T02:52:55.970Z,100.00
2022-09-07T02:55:39.158Z,100.00
2022-09-07T02:58:27.840Z,100.00
2022-09-07T03:01:10.377Z,100.00
2022-09-07T03:03:53.383Z,100.00
2022-09-07T03:06:30.043Z,100.00
2022-09-07T03:09:02.956Z,100.00
2022-09-07T03:11:31.919Z,100.00
2022-09-07T03:14:14.759Z,100.00
2022-09-07T03:16:43.620Z,100.00
2022-09-07T03:19:13.269Z,100.00
2022-09-07T03:21:41.653Z,100.00
2022-09-07T03:24:10.571Z,100.00
2022-09-07T03:26:44.646Z,100.00
2022-09-07T03:29:13.420Z,100.00
2022-09-07T03:31:41.937Z,100.00
2022-09-07T03:34:10.613Z,100.00
2022-09-07T03:36:40.360Z,100.00
2022-09-07T03:39:08.679Z,100.00
2022-09-07T03:41:36.975Z,100.00
2022-09-07T03:44:06.919Z,100.00
2022-09-07T03:46:36.229Z,100.00
2022-09-07T03:49:04.552Z,100.00
2022-09-07T03:51:32.857Z,100.00
2022-09-07T03:54:02.677Z,100.00
2022-09-07T03:56:31.049Z,100.00
2022-09-07T03:58:59.431Z,100.00
2022-09-07T04:01:28.826Z,100.00
2022-09-07T04:04:02.687Z,100.00
2022-09-07T04:06:32.541Z,100.00
2022-09-07T04:09:05.901Z,100.00
2022-09-07T04:11:34.739Z,100.00
2022-09-07T04:14:03.238Z,100.00
2022-09-07T04:16:31.789Z,100.00
2022-09-07T04:19:00.559Z,100.00
2022-09-07T04:21:31.582Z,100.00
2022-09-07T04:24:00.579Z,100.00
2022-09-07T04:26:34.001Z,100.00
2022-09-07T04:29:02.968Z,100.00
2022-09-07T04:31:31.751Z,100.00
2022-09-07T04:34:00.053Z,100.00
2022-09-07T04:36:28.671Z,100.00
2022-09-07T04:38:59.550Z,100.00
2022-09-07T04:41:32.040Z,100.00
2022-09-07T04:44:03.345Z,100.00
2022-09-07T04:46:36.233Z,100.00
2022-09-07T04:49:09.402Z,100.00
2022-09-07T04:51:39.753Z,100.00
2022-09-07T04:54:08.196Z,100.00
2022-09-07T04:56:37.847Z,100.00
2022-09-07T04:59:07.336Z,100.00
2022-09-07T05:01:35.764Z,100.00
2022-09-07T05:04:05.733Z,100.00
2022-09-07T05:06:34.269Z,100.00
2022-09-07T05:09:03.207Z,100.00
2022-09-07T05:11:31.564Z,100.00
2022-09-07T05:14:03.437Z,100.00
2022-09-07T05:16:32.474Z,100.00
2022-09-07T05:19:04.106Z,100.00
2022-09-07T05:21:34.986Z,100.00
2022-09-07T05:24:04.418Z,100.00
2022-09-07T05:26:36.187Z,100.00
2022-09-07T05:31:56.228Z,100.00
2022-09-07T05:36:56.357Z,100.00
2022-09-07T05:39:25.421Z,100.00
2022-09-07T05:41:53.855Z,100.00
2022-09-07T05:47:12.605Z,100.00
2022-09-07T05:49:41.283Z,100.00
2022-09-07T05:52:09.923Z,100.00
2022-09-07T05:54:38.225Z,100.00
2022-09-07T05:57:07.114Z,100.00
2022-09-07T05:59:36.749Z,100.00
2022-09-07T06:02:05.710Z,100.00
2022-09-07T06:04:34.723Z,100.00
2022-09-07T06:07:22.131Z,100.00
2022-09-07T06:12:39.545Z,100.00
2022-09-07T06:15:11.391Z,100.00
2022-09-07T06:17:40.058Z,100.00
2022-09-07T06:20:10.312Z,100.00
2022-09-07T06:22:39.323Z,100.00
2022-09-07T06:25:08.269Z,100.00
2022-09-07T06:27:36.532Z,100.00
2022-09-07T06:30:05.841Z,100.00
2022-09-07T06:32:45.537Z,100.00
2022-09-07T06:35:16.135Z,100.00
2022-09-07T06:37:45.121Z,100.00
2022-09-07T06:40:14.008Z,100.00
2022-09-07T06:42:42.513Z,100.00
2022-09-07T06:45:12.949Z,100.00
2022-09-07T06:47:42.655Z,100.00
2022-09-07T06:50:12.454Z,100.00
2022-09-07T06:55:29.538Z,100.00
2022-09-07T06:57:58.022Z,100.00
2022-09-07T07:00:26.743Z,100.00
2022-09-07T07:02:56.439Z,100.00
2022-09-07T07:05:25.256Z,100.00
2022-09-07T07:07:53.506Z,100.00
2022-09-07T07:10:24.772Z,100.00
2022-09-07T07:12:57.568Z,100.00
2022-09-07T07:15:29.431Z,100.00
2022-09-07T07:18:05.445Z,100.00
2022-09-07T07:20:44.226Z,100.00
2022-09-07T07:23:13.281Z,100.00
2022-09-07T07:25:41.622Z,100.00
2022-09-07T07:31:00.036Z,100.00
2022-09-07T07:33:33.761Z,100.00
2022-09-07T07:36:11.640Z,100.00
2022-09-07T07:44:20.863Z,100.00
2022-09-07T07:46:50.360Z,100.00
2022-09-07T07:49:20.369Z,100.00
2022-09-07T07:54:37.862Z,100.00
2022-09-07T07:57:07.105Z,100.00
2022-09-07T07:59:36.173Z,100.00
2022-09-07T08:02:05.894Z,100.00
2022-09-07T08:04:36.942Z,100.00
2022-09-07T08:07:10.700Z,100.00
2022-09-07T08:09:41.551Z,100.00
2022-09-07T08:12:12.334Z,100.00
2022-09-07T08:14:42.115Z,97.03
2022-09-07T08:17:11.968Z,95.16
2022-09-07T08:19:42.217Z,97.07
2022-09-07T08:22:12.578Z,92.13
2022-09-07T08:24:41.168Z,90.54
2022-09-07T08:27:09.483Z,88.57
2022-09-07T08:29:37.859Z,89.52
2022-09-07T08:32:07.505Z,88.04
2022-09-07T08:34:38.269Z,87.38
2022-09-07T08:37:07.973Z,88.75
2022-09-07T08:39:37.681Z,88.86
2022-09-07T08:42:54.108Z,89.94
2022-09-07T08:45:30.802Z,87.79
2022-09-07T08:47:59.627Z,87.56
2022-09-07T08:50:34.539Z,86.67
2022-09-07T08:53:09.445Z,85.03
2022-09-07T08:55:46.542Z,83.92
2022-09-07T08:58:45.131Z,82.43
2022-09-07T09:04:19.374Z,81.68
2022-09-07T09:07:07.164Z,85.11
2022-09-07T09:10:05.717Z,82.77
2022-09-07T09:12:55.185Z,81.17
2022-09-07T09:15:32.756Z,79.73
2022-09-07T09:18:15.885Z,77.79
2022-09-07T09:20:51.529Z,77.20
2022-09-07T09:23:25.721Z,74.25
2022-09-07T09:25:58.105Z,71.13
2022-09-07T09:28:28.872Z,67.82
2022-09-07T09:31:00.135Z,67.84
2022-09-07T09:33:30.237Z,70.89
2022-09-07T09:36:01.726Z,71.57
2022-09-07T09:38:36.263Z,76.42
2022-09-07T09:41:09.101Z,80.89
2022-09-07T09:43:45.769Z,80.52
2022-09-07T09:46:27.331Z,80.42
2022-09-07T09:49:00.813Z,85.21
2022-09-07T09:54:27.363Z,85.24
2022-09-07T09:56:57.253Z,86.74
2022-09-07T10:05:30.592Z,86.52
2022-09-07T10:07:59.563Z,85.08
2022-09-07T10:10:31.464Z,86.56
2022-09-07T10:13:01.470Z,86.51
2022-09-07T10:15:40.109Z,82.34
2022-09-07T10:18:21.197Z,84.47
2022-09-07T10:20:49.994Z,81.87
2022-09-07T10:23:25.349Z,75.88
2022-09-07T10:25:53.738Z,71.69
2022-09-07T10:29:06.016Z,68.98
2022-09-07T10:31:22.858Z,71.27
2022-09-07T10:37:02.747Z,69.15
2022-09-07T10:39:37.596Z,65.98
2022-09-07T10:42:25.344Z,65.19
2022-09-07T10:45:11.815Z,60.95
2022-09-07T10:47:54.005Z,59.52
2022-09-07T10:50:32.820Z,58.12
2022-09-07T10:53:40.868Z,58.45
2022-09-07T10:56:14.290Z,64.76
2022-09-07T10:59:02.299Z,64.42
2022-09-07T11:01:53.004Z,63.04
2022-09-07T11:04:46.884Z,60.64
2022-09-07T11:07:31.543Z,61.67
2022-09-07T11:10:04.278Z,61.96
2022-09-07T11:12:37.430Z,61.89
2022-09-07T11:15:20.440Z,64.89
2022-09-07T11:17:58.005Z,62.69
2022-09-07T11:20:32.033Z,57.56
2022-09-07T11:23:16.289Z,55.33
2022-09-07T11:25:58.493Z,54.25
2022-09-07T11:28:32.271Z,55.17
2022-09-07T11:31:08.384Z,56.77
2022-09-07T11:36:51.841Z,57.49
2022-09-07T11:39:29.555Z,55.41
2022-09-07T11:42:42.685Z,53.71
2022-09-07T11:45:00.843Z,56.24
2022-09-07T11:47:38.189Z,57.80
2022-09-07T11:50:18.402Z,55.26
2022-09-07T11:52:55.035Z,54.03
2022-09-07T11:55:28.488Z,58.38
2022-09-07T11:58:32.077Z,50.52
2022-09-07T12:01:23.020Z,56.76
2022-09-07T12:04:18.683Z,62.47
2022-09-07T12:07:32.024Z,57.81
2022-09-07T12:10:37.860Z,49.51
2022-09-07T12:13:41.121Z,52.34
2022-09-07T12:16:19.462Z,48.65
2022-09-07T12:19:18.745Z,44.75
2022-09-07T12:21:55.595Z,46.30
2022-09-07T12:24:44.531Z,50.14
2022-09-07T12:27:42.838Z,50.92
2022-09-07T12:30:56.261Z,49.68
2022-09-07T12:33:35.543Z,50.38
2022-09-07T12:36:43.065Z,50.54
2022-09-07T12:39:25.700Z,49.89
2022-09-07T12:42:32.719Z,49.20
2022-09-07T12:45:51.421Z,50.48
2022-09-07T12:48:44.316Z,49.70
2022-09-07T12:54:32.910Z,62.07
2022-09-07T12:57:30.065Z,67.31
2022-09-07T13:00:17.353Z,64.20
2022-09-07T13:09:36.287Z,55.29
2022-09-07T13:15:42.931Z,53.41
2022-09-07T13:18:28.460Z,54.50
2022-09-07T13:21:40.508Z,52.33
2022-09-07T13:24:50.385Z,51.31
2022-09-07T13:27:46.750Z,50.96
2022-09-07T13:30:49.278Z,52.78
2022-09-07T13:33:48.661Z,58.95
2022-09-07T13:36:41.576Z,57.52
2022-09-07T13:39:16.797Z,54.85
2022-09-07T13:41:53.081Z,49.67
2022-09-07T13:44:26.718Z,47.34
2022-09-07T13:47:07.994Z,46.84
2022-09-07T13:50:01.795Z,45.02
2022-09-07T13:52:48.253Z,44.36
2022-09-07T13:55:33.261Z,44.72
2022-09-07T13:58:17.855Z,42.80
2022-09-07T14:00:57.355Z,45.79
2022-09-07T14:03:29.192Z,47.32
2022-09-07T14:06:32.666Z,46.39
2022-09-07T14:09:05.059Z,47.06
2022-09-07T14:11:43.801Z,47.80
2022-09-07T14:14:19.141Z,50.90
2022-09-07T14:16:55.356Z,55.27
2022-09-07T14:19:28.167Z,55.43
2022-09-07T14:22:02.815Z,55.07
2022-09-07T14:24:36.178Z,49.08
2022-09-07T14:27:06.697Z,47.53
2022-09-07T14:29:37.564Z,48.98
2022-09-07T14:32:16.157Z,48.47
2022-09-07T14:34:46.285Z,45.91
2022-09-07T14:37:18.692Z,48.04
2022-09-07T14:39:51.149Z,47.83
2022-09-07T14:42:25.090Z,45.91
2022-09-07T14:45:31.681Z,46.18
2022-09-07T14:48:11.474Z,46.72
2022-09-07T14:50:41.452Z,45.42
2022-09-07T14:56:11.541Z,46.67
2022-09-07T14:58:39.885Z,49.74
2022-09-07T15:04:20.263Z,53.41
2022-09-07T15:07:06.081Z,54.65
2022-09-07T15:09:38.753Z,54.58
2022-09-07T15:12:27.182Z,55.14
2022-09-07T15:15:12.683Z,53.12
2022-09-07T15:17:44.550Z,51.10
2022-09-07T15:20:39.712Z,52.53
2022-09-07T15:23:13.333Z,51.80
2022-09-07T15:25:45.367Z,53.11
2022-09-07T15:34:10.036Z,58.72
2022-09-07T15:36:42.416Z,57.94
2022-09-07T15:39:18.520Z,58.66
2022-09-07T15:41:47.146Z,60.70
2022-09-07T15:44:15.927Z,61.36
2022-09-07T15:47:42.474Z,61.96
2022-09-07T15:49:33.196Z,59.15
2022-09-07T15:52:06.866Z,60.56
2022-09-07T15:54:39.214Z,59.06
2022-09-07T15:59:56.332Z,56.57
2022-09-07T16:05:13.126Z,59.70
2022-09-07T16:10:31.793Z,60.35
2022-09-07T16:13:01.854Z,60.98
2022-09-07T16:15:31.260Z,62.12
2022-09-07T16:17:59.590Z,61.41
2022-09-07T16:20:31.879Z,60.76
2022-09-07T16:23:17.784Z,64.26
2022-09-07T16:25:58.175Z,65.34
2022-09-07T16:28:27.853Z,67.09
2022-09-07T16:30:57.009Z,72.93
2022-09-07T16:33:33.140Z,74.12
2022-09-07T16:36:09.371Z,80.32
2022-09-07T16:38:47.303Z,77.15
2022-09-07T16:41:20.009Z,81.24
2022-09-07T16:43:48.602Z,82.70
2022-09-07T16:46:19.626Z,84.24
2022-09-07T16:48:48.509Z,84.00
2022-09-07T16:51:19.719Z,82.25
2022-09-07T16:53:51.428Z,75.46
2022-09-07T16:56:22.846Z,80.93
2022-09-07T16:58:54.112Z,81.61
2022-09-07T17:01:26.476Z,80.27
2022-09-07T17:03:55.278Z,81.24
2022-09-07T17:06:26.955Z,84.19
2022-09-07T17:08:57.401Z,85.92
2022-09-07T17:11:28.183Z,88.70
2022-09-07T17:13:58.947Z,91.67
2022-09-07T17:16:30.700Z,88.73
2022-09-07T17:21:52.772Z,89.90
2022-09-07T17:24:22.673Z,94.13
2022-09-07T17:26:51.268Z,95.83
2022-09-07T17:29:19.808Z,97.06
2022-09-07T17:34:36.995Z,97.53
2022-09-07T17:37:05.394Z,99.23
2022-09-07T17:39:35.449Z,99.63
2022-09-07T17:42:03.742Z,100.00
2022-09-07T17:44:37.690Z,100.00
2022-09-07T17:47:06.987Z,100.00
2022-09-07T17:49:35.546Z,100.00
2022-09-07T17:52:05.052Z,100.00
2022-09-07T17:54:34.908Z,100.00
2022-09-07T17:57:04.055Z,100.00
2022-09-07T18:02:21.093Z,100.00
2022-09-07T18:04:49.968Z,100.00
2022-09-07T18:07:18.793Z,100.00
2022-09-07T18:09:48.808Z,99.76
2022-09-07T18:12:17.295Z,100.00
2022-09-07T18:14:45.639Z,99.74
2022-09-07T18:17:13.993Z,99.70
2022-09-07T18:19:42.451Z,100.00
2022-09-07T18:22:10.923Z,100.00
2022-09-07T18:24:39.538Z,100.00
2022-09-07T18:27:09.821Z,100.00
2022-09-07T18:29:38.554Z,100.00
2022-09-07T18:32:09.895Z,100.00
2022-09-07T18:34:41.355Z,100.00
2022-09-07T18:37:12.202Z,100.00
2022-09-07T18:39:41.719Z,100.00
2022-09-07T18:42:11.942Z,100.00
2022-09-07T18:47:29.491Z,100.00
2022-09-07T18:49:59.067Z,100.00
2022-09-07T18:55:17.220Z,100.00
2022-09-07T18:57:46.977Z,100.00
2022-09-07T19:00:16.174Z,100.00
2022-09-07T19:02:49.833Z,100.00
2022-09-07T19:08:08.823Z,100.00
2022-09-07T19:10:38.516Z,100.00
2022-09-07T19:13:08.203Z,100.00
2022-09-07T19:15:38.121Z,100.00
2022-09-07T19:18:08.836Z,100.00
2022-09-07T19:20:38.700Z,100.00
2022-09-07T19:23:07.945Z,100.00
2022-09-07T19:25:40.380Z,100.00
2022-09-07T19:28:10.378Z,100.00
2022-09-07T19:30:39.313Z,100.00
2022-09-07T19:33:10.012Z,100.00
2022-09-07T19:35:38.367Z,100.00
2022-09-07T19:38:06.725Z,100.00
2022-09-07T19:40:35.479Z,100.00
2022-09-07T19:43:04.036Z,100.00
2022-09-07T19:45:37.905Z,100.00
2022-09-07T19:48:06.723Z,100.00
2022-09-07T19:50:35.308Z,100.00
2022-09-07T19:53:03.641Z,100.00
2022-09-07T19:55:32.343Z,100.00
2022-09-07T19:58:00.658Z,100.00
2022-09-07T20:00:29.436Z,100.00
2022-09-07T20:02:59.723Z,100.00
2022-09-07T20:05:31.115Z,100.00
2022-09-07T20:07:59.918Z,100.00
2022-09-07T20:10:28.569Z,100.00
2022-09-07T20:12:57.038Z,100.00
2022-09-07T20:15:25.488Z,100.00
2022-09-07T20:17:54.265Z,100.00
2022-09-07T20:20:24.133Z,100.00
2022-09-07T20:22:52.497Z,100.00
2022-09-07T20:25:21.370Z,100.00
2022-09-07T20:27:49.999Z,100.00
2022-09-07T20:30:18.867Z,100.00
2022-09-07T20:32:47.878Z,100.00
2022-09-07T20:35:16.650Z,100.00
2022-09-07T20:37:46.580Z,100.00
2022-09-07T20:40:15.264Z,100.00
2022-09-07T20:42:43.893Z,100.00
2022-09-07T20:45:12.555Z,100.00
2022-09-07T20:47:40.921Z,100.00
2022-09-07T20:50:10.176Z,100.00
2022-09-07T20:52:38.820Z,100.00
2022-09-07T20:55:10.123Z,100.00
2022-09-07T20:57:38.909Z,100.00
2022-09-07T21:00:09.051Z,100.00
2022-09-07T21:02:37.919Z,100.00
2022-09-07T21:05:07.881Z,100.00
2022-09-07T21:07:38.930Z,100.00
2022-09-07T21:10:10.361Z,100.00
2022-09-07T21:12:38.841Z,100.00
2022-09-07T21:15:08.945Z,100.00
2022-09-07T21:17:38.864Z,100.00
2022-09-07T21:20:08.073Z,100.00
2022-09-07T21:22:36.336Z,100.00
2022-09-07T21:25:05.057Z,100.00
2022-09-07T21:27:38.777Z,100.00
2022-09-07T21:30:08.953Z,100.00
2022-09-07T21:32:38.453Z,100.00
2022-09-07T21:35:10.131Z,100.00
2022-09-07T21:37:38.535Z,100.00
2022-09-07T21:40:08.575Z,100.00
2022-09-07T21:42:39.600Z,100.00
2022-09-07T21:45:10.373Z,100.00
2022-09-07T21:47:39.131Z,100.00
2022-09-07T21:50:08.340Z,100.00
2022-09-07T21:52:38.898Z,100.00
2022-09-07T21:55:09.140Z,100.00
2022-09-07T21:57:39.070Z,100.00
2022-09-07T22:00:09.677Z,100.00
2022-09-07T22:02:38.222Z,100.00
2022-09-07T22:05:07.080Z,100.00
2022-09-07T22:07:35.921Z,100.00
2022-09-07T22:10:04.911Z,100.00
2022-09-07T22:12:33.232Z,100.00
2022-09-07T22:15:03.153Z,100.00
2022-09-07T22:17:31.552Z,100.00
2022-09-07T22:19:59.951Z,100.00
2022-09-07T22:22:28.563Z,100.00
2022-09-07T22:24:57.515Z,100.00
2022-09-07T22:27:26.002Z,100.00
2022-09-07T22:29:54.734Z,100.00
2022-09-07T22:32:24.530Z,100.00
2022-09-07T22:34:53.159Z,100.00
2022-09-07T22:37:21.968Z,100.00
2022-09-07T22:39:50.530Z,100.00
2022-09-07T22:42:19.019Z,100.00
2022-09-07T22:44:47.454Z,100.00
2022-09-07T22:47:15.810Z,100.00
2022-09-07T22:49:45.580Z,100.00
2022-09-07T22:52:13.969Z,98.29
2022-09-07T22:54:42.641Z,96.77
2022-09-07T22:57:11.040Z,96.60
2022-09-07T22:59:39.474Z,96.33
2022-09-07T23:02:08.070Z,95.96
2022-09-07T23:04:36.667Z,95.55
2022-09-07T23:07:07.696Z,96.20
2022-09-07T23:09:36.397Z,96.86
2022-09-07T23:12:04.939Z,99.95
2022-09-07T23:14:33.874Z,100.00
2022-09-07T23:17:02.249Z,100.00
2022-09-07T23:19:30.847Z,100.00
2022-09-07T23:21:59.629Z,100.00
2022-09-07T23:24:29.363Z,100.00
2022-09-07T23:26:57.943Z,100.00
2022-09-07T23:29:26.361Z,100.00
2022-09-07T23:31:54.635Z,100.00
2022-09-07T23:34:22.883Z,100.00
2022-09-07T23:36:51.200Z,100.00
2022-09-07T23:39:19.434Z,100.00
2022-09-07T23:41:49.031Z,100.00
2022-09-07T23:44:17.259Z,100.00
2022-09-07T23:46:45.497Z,100.00
2022-09-07T23:49:13.791Z,100.00
2022-09-07T23:51:41.984Z,100.00
2022-09-07T23:54:10.655Z,100.00
2022-09-07T23:56:39.108Z,100.00
2022-09-07T23:59:10.586Z,100.00
